Terminal Aerodrome Forecast
Issued by NWS

Home | Current Version | Previous Version | Text Only | Print | Product List | Glossary On
Versions: 1 2 3 4 5 6 7 8 9 10 11 12 13 14 15 16 17 18 19 20 21 22 23 24 25 26 27
000
FTUS46 KPDT 250800 AAE
TAFDLS
TAF AMD
KDLS 250828Z 2508/2606 32004KT P6SM SCT007 OVC200
      TEMPO 2508/2512 BKN007 OVC200
     FM251200 09003KT 1SM BR BKN008 OVC200
     FM252000 08004KT P6SM FEW012 SCT250=

USA.gov is the U.S. government's official web portal to all federal, state and local government web resources and services.